Terminal Aerodrome Forecast
Issued by NWS Nashville, TN

Home | Current Version | Previous Version | Text Only | Print | Product List | Glossary On
Versions: 1 2 3 4 5 6 7 8 9 10 11 12 13 14 15 16
391
FTUS44 KOHX 300524
TAFCSV
TAF
KCSV 300524Z 3006/0106 18010KT P6SM SKC WS020/19040KT
     FM301400 18014G27KT P6SM SCT030
     FM010100 17019G32KT P6SM -SHRA VCTS OVC050CB
     FM010500 21015G25KT 3SM -TSRA BKN025CB OVC050=

USA.gov is the U.S. government's official web portal to all federal, state and local government web resources and services.